Latest Weather Observations for Maitland Airport

IDN60801

Issued at 10:52 am EST Monday 16 September 2019 (issued every 10 minutes, with the page automatically refreshed every 10 minutes)

About weather observations | Map of weather stations | Latest weather observations for NSW | Other Formats
Station Details ID: 061428 Name: MAITLAND AIRPORT AWS Lat: -32.70 Lon: 151.49 Height: 27.5 m
Data from the previous 72 hours. | See also: Recent months at Maitland Airport
Date/Time
EST
Temp
°C
App
Temp
°C
Dew
Point
°C
Rel
Hum
%
Delta-T
°C
Wind Press
QNH
hPa
Press
MSL
hPa
Rain since
9am
mm
Dir  Spd
km/h
Gust
km/h
Spd
kts
Gust
kts
16/10:30am 27.6 19.9 -6.7 10 14.3 NW 26 41 14 22 1016.0 1016.0 0.0
16/10:00am 26.1 19.7 -1.7 16 12.5 NW 22 30 12 16 1016.4 1016.4 0.0
16/09:30am 24.2 18.6 1.2 22 10.8 WNW 20 30 11 16 1016.7 1016.7 0.0
16/09:00am 21.6 16.0 1.3 26 9.3 WNW 20 28 11 15 1017.0 1017.0 0.0
16/08:30am 18.7 12.6 0.3 29 8.1 WNW 22 32 12 17 1017.2 1017.2 0.0
16/08:00am 16.8 12.7 2.4 38 6.5 NW 13 22 7 12 1017.4 1017.4 0.0
16/07:30am 14.5 9.7 0.0 37 6.1 WNW 15 20 8 11 1017.3 1017.3 0.0
16/07:00am 12.8 9.8 1.8 47 4.7 WNW 7 20 4 11 1017.4 1017.4 0.0
16/06:59am 12.4 9.4 1.1 46 4.8 WNW 6 17 3 9 1017.4 1017.4 0.0
16/06:30am 7.3 5.7 2.2 70 2.1 CALM 0 0 0 0 1017.5 1017.5 0.0
16/06:00am 7.5 5.8 1.6 66 2.4 CALM 0 0 0 0 1017.4 1017.4 0.0
16/05:30am 9.5 6.5 0.9 55 3.5 WNW 6 7 3 4 1017.2 1017.2 0.0
16/05:00am 10.8 6.9 1.4 52 3.9 WNW 11 17 6 9 1017.1 1017.1 0.0
16/04:30am 11.7 7.8 1.4 49 4.4 WNW 11 15 6 8 1017.2 1017.2 0.0
16/04:21am 12.1 7.5 1.7 49 4.4 WNW 15 20 8 11 1017.2 1017.2 0.0
16/04:00am 7.1 5.6 3.2 76 1.6 CALM 0 6 0 3 1017.2 1017.2 0.0
16/03:30am 7.5 6.2 4.1 79 1.5 CALM 0 0 0 0 1017.4 1017.4 0.0
16/03:00am 7.3 6.2 5.1 86 1.0 CALM 0 0 0 0 1017.5 1017.5 0.0
16/02:30am 7.0 5.5 5.2 88 0.8 SSW 2 6 1 3 1017.6 1017.6 0.0
16/02:00am 7.2 5.1 5.7 90 0.7 SSW 6 6 3 3 1017.8 1017.8 0.0
16/01:30am 7.5 6.3 6.3 92 0.5 SSW 2 9 1 5 1018.2 1018.2 0.0
16/01:00am 8.3 7.7 7.5 95 0.4 CALM 0 0 0 0 1018.4 1018.4 0.0
16/12:30am 8.8 8.3 7.7 93 0.5 CALM 0 0 0 0 1018.5 1018.5 0.0
16/12:00am 9.3 7.6 7.7 90 0.8 SSW 6 7 3 4 1018.6 1018.6 0.0
 
Date/Time
EST
Temp
°C
App
Temp
°C
Dew
Point
°C
Rel
Hum
%
Delta-T
°C
Wind Press
QNH
hPa
Press
MSL
hPa
Rain since
9am
mm
Dir  Spd
km/h
Gust
km/h
Spd
kts
Gust
kts
15/11:30pm 10.2 9.6 9.0 92 0.6 SSW 2 6 1 3 1018.6 1018.6 0.0
15/11:00pm 10.6 10.5 9.4 92 0.6 CALM 0 0 0 0 1018.8 1018.8 0.0
15/10:30pm 11.2 11.1 9.6 90 0.8 CALM 0 0 0 0 1018.7 1018.7 0.0
15/10:00pm 12.0 11.8 9.0 82 1.5 CALM 0 0 0 0 1018.8 1018.8 0.0
15/09:30pm 13.9 12.4 10.5 80 1.8 SSW 9 13 5 7 1018.8 1018.8 0.0
15/09:00pm 14.3 12.1 10.7 79 1.9 SSW 13 13 7 7 1019.0 1019.0 0.0
15/08:30pm 13.3 11.6 9.7 79 1.8 E 9 11 5 6 1018.9 1018.9 0.0
15/08:00pm 15.4 14.8 10.4 72 2.6 E 4 9 2 5 1019.0 1019.0 0.0
15/07:30pm 17.1 16.3 10.9 67 3.3 E 6 7 3 4 1018.9 1018.9 0.0
15/07:00pm 18.2 17.1 10.6 61 4.1 E 7 9 4 5 1018.8 1018.8 0.0
15/06:30pm 19.1 18.4 9.9 55 4.9 E 4 9 2 5 1018.6 1018.6 0.0
15/06:00pm 19.6 18.0 8.9 50 5.6 E 7 13 4 7 1018.3 1018.3 0.0
15/05:30pm 22.3 18.7 4.8 32 8.6 E 13 15 7 8 1018.2 1018.2 0.0
15/05:00pm 24.8 21.0 4.0 26 10.3 ENE 13 15 7 8 1018.3 1018.3 0.0
15/04:30pm 26.3 22.5 4.1 24 11.1 ENE 13 17 7 9 1018.4 1018.4 0.0
15/04:00pm 27.0 23.4 0.7 18 12.4 N 9 17 5 9 1018.2 1018.2 0.0
15/03:30pm 26.9 23.6 -0.2 17 12.6 N 7 13 4 7 1018.3 1018.3 0.0
15/03:00pm 27.2 23.9 0.1 17 12.7 NW 7 11 4 6 1018.6 1018.6 0.0
15/02:30pm 26.6 23.2 -0.4 17 12.5 NW 7 15 4 8 1018.9 1018.9 0.0
15/02:00pm 26.2 21.9 0.8 19 11.9 WNW 13 19 7 10 1019.2 1019.2 0.0
15/01:30pm 25.7 21.3 0.4 19 11.8 NW 13 20 7 11 1019.5 1019.5 0.0
15/01:00pm 25.1 21.0 2.5 23 10.9 WNW 13 19 7 10 1020.1 1020.1 0.0
15/12:30pm 24.7 20.4 0.9 21 11.1 NW 13 22 7 12 1020.5 1020.5 0.0
15/12:00pm 23.3 19.0 3.3 27 9.6 NW 15 24 8 13 1021.1 1021.1 0.0
15/11:30am 23.0 19.9 7.1 36 8.2 WNW 13 20 7 11 1021.7 1021.7 0.0
15/11:00am 21.5 17.5 6.6 38 7.5 WNW 17 26 9 14 1022.2 1022.2 0.0
15/10:30am 20.8 17.5 9.4 48 6.1 WNW 17 24 9 13 1022.6 1022.6 0.0
15/10:00am 19.1 15.7 10.4 57 4.7 WNW 19 28 10 15 1023.2 1023.2 0.0
15/09:30am 17.5 13.9 10.6 64 3.7 WNW 20 28 11 15 1023.7 1023.7 0.0
15/09:00am 15.8 12.1 10.1 69 3.0 WNW 20 26 11 14 1023.7 1023.7 0.0
15/08:30am 13.7 9.9 9.9 78 2.0 WNW 20 32 11 17 1023.9 1023.9 0.0
15/08:00am 11.5 9.1 10.2 92 0.7 WNW 13 17 7 9 1024.2 1024.2 0.0
15/07:30am 9.8 8.1 9.8 100 0.0 ENE 9 17 5 9 1023.8 1023.8 0.0
15/07:00am 8.6 7.9 8.6 100 0.0 E 2 7 1 4 1023.5 1023.5 0.0
15/06:36am 7.2 5.4 7.2 100 0.0 E 6 11 3 6 1023.3 1023.3 0.0
15/06:30am 6.7 4.8 6.7 100 0.0 E 6 11 3 6 1023.4 1023.4 0.0
15/06:00am 4.6 2.3 4.6 100 0.0 E 6 9 3 5 1023.2 1023.2 0.0
15/05:43am 4.7 3.1 4.7 100 0.0 E 2 7 1 4 1023.1 1023.1 0.0
15/05:42am 4.7 3.1 4.7 100 0.0 E 2 7 1 4 1023.1 1023.1 0.0
15/05:30am 6.7 4.6 6.7 100 0.0 E 7 9 4 5 1023.0 1023.0 0.0
15/05:00am 5.3 4.2 5.3 100 0.0 CALM 0 0 0 0 1022.8 1022.8 0.0
15/04:59am 4.9 3.8 4.9 100 0.0 CALM 0 0 0 0 1022.8 1022.8 0.0
15/04:47am 6.4 4.2 6.4 100 0.0 E 7 11 4 6 1022.7 1022.7 0.0
15/04:30am 6.8 4.7 6.8 100 0.0 E 7 9 4 5 1022.5 1022.5 0.0
15/04:00am 5.3 4.2 5.3 100 0.0 CALM 0 0 0 0 1022.3 1022.3 0.0
15/03:30am 5.0 3.9 4.9 99 0.0 CALM 0 0 0 0 1022.5 1022.5 0.0
15/03:00am 5.4 3.6 5.3 99 0.0 E 4 6 2 3 1022.7 1022.7 0.0
15/02:30am 6.8 6.1 6.8 100 0.0 CALM 0 0 0 0 1022.8 1022.8 0.0
15/02:00am 7.9 7.4 7.9 100 0.0 CALM 0 0 0 0 1023.1 1023.1 0.0
15/01:30am 7.7 7.1 7.6 99 0.0 CALM 0 0 0 0 1023.4 1023.4 0.0
15/01:12am 7.9 7.4 7.8 99 0.0 CALM 0 0 0 0 1023.5 1023.5 0.0
15/01:00am 8.1 7.6 8.0 99 0.0 CALM 0 0 0 0 1023.6 1023.6 0.0
15/12:30am 8.1 7.6 8.0 99 0.0 CALM 0 0 0 0 1023.9 1023.9 0.0
15/12:00am 7.4 6.7 7.0 97 0.2 CALM 0 0 0 0 1023.9 1023.9 0.0
 
Date/Time
EST
Temp
°C
App
Temp
°C
Dew
Point
°C
Rel
Hum
%
Delta-T
°C
Wind Press
QNH
hPa
Press
MSL
hPa
Rain since
9am
mm
Dir  Spd
km/h
Gust
km/h
Spd
kts
Gust
kts
14/11:30pm 7.8 7.1 7.1 95 0.3 CALM 0 0 0 0 1024.0 1024.0 0.0
14/11:00pm 9.3 9.0 8.8 97 0.2 CALM 0 0 0 0 1024.0 1024.0 0.0
14/10:30pm 8.9 8.0 7.8 93 0.5 E 2 9 1 5 1024.0 1024.0 0.0
14/10:00pm 9.9 8.5 9.4 97 0.2 E 7 9 4 5 1024.1 1024.1 0.0
14/09:30pm 9.5 9.1 8.3 92 0.6 CALM 0 0 0 0 1024.0 1024.0 0.0
14/09:00pm 10.4 10.0 8.3 87 1.0 CALM 0 0 0 0 1024.0 1024.0 0.0
14/08:30pm 11.7 11.6 9.6 87 1.1 CALM 0 0 0 0 1023.7 1023.7 0.0
14/08:00pm 12.0 10.8 9.4 84 1.3 E 6 6 3 3 1023.5 1023.5 0.0
14/07:30pm 12.6 11.4 9.4 81 1.6 E 6 6 3 3 1023.2 1023.2 0.0
14/07:00pm 14.1 12.4 9.9 76 2.2 E 9 13 5 7 1022.8 1022.8 0.0
14/06:30pm 14.9 12.9 10.1 73 2.5 E 11 17 6 9 1022.5 1022.5 0.0
14/06:00pm 15.7 13.0 10.2 70 2.9 E 15 20 8 11 1022.2 1022.2 0.0
14/05:30pm 16.6 13.6 10.5 67 3.2 ESE 17 22 9 12 1022.0 1022.0 0.0
14/05:00pm 17.6 14.2 10.5 63 3.8 E 19 24 10 13 1022.0 1022.0 0.0
14/04:30pm 18.6 14.7 10.9 61 4.2 E 22 28 12 15 1021.4 1021.4 0.0
14/04:00pm 19.4 15.9 10.9 58 4.6 ESE 20 26 11 14 1021.3 1021.3 0.0
14/03:30pm 19.9 16.7 11.1 57 4.8 ESE 19 28 10 15 1021.2 1021.2 0.0
14/03:00pm 20.4 16.3 11.3 56 5.0 ESE 24 32 13 17 1021.1 1021.1 0.0
14/02:30pm 20.2 16.8 11.1 56 5.0 E 20 30 11 16 1021.3 1021.3 0.0
14/02:00pm 21.0 17.5 12.2 57 4.9 ESE 22 33 12 18 1021.4 1021.4 0.0
14/01:30pm 21.2 17.9 11.0 52 5.6 ESE 19 28 10 15 1021.3 1021.3 0.0
14/01:00pm 21.9 19.4 9.8 46 6.5 SE 13 24 7 13 1021.6 1021.6 0.0
14/12:30pm 22.0 19.2 8.5 42 7.1 SE 13 20 7 11 1021.8 1021.8 0.0
14/12:00pm 22.4 19.9 9.6 44 6.9 SE 13 26 7 14 1022.2 1022.2 0.0
14/11:30am 21.6 18.1 7.1 39 7.4 SSE 15 28 8 15 1022.8 1022.8 0.0
14/11:00am 20.9 16.1 5.7 37 7.5 SE 20 30 11 16 1022.9 1022.9 0.0
14/10:30am 21.0 18.1 4.6 34 8.0 SSW 9 17 5 9 1023.1 1023.1 0.0
14/10:00am 20.2 16.8 3.9 34 7.8 SSW 11 20 6 11 1023.4 1023.4 0.0
14/09:30am 19.6 15.7 1.1 29 8.3 S 11 17 6 9 1023.4 1023.4 0.0
14/09:00am 18.4 14.3 2.3 34 7.3 WNW 13 19 7 10 1023.2 1023.2 0.0
14/08:30am 16.8 12.9 1.3 35 6.8 W 11 17 6 9 1023.0 1023.0 0.0
14/08:00am 14.7 10.9 3.8 48 5.0 W 13 20 7 11 1022.4 1022.4 0.0
14/07:30am 13.0 9.4 4.9 58 3.7 W 13 19 7 10 1021.8 1021.8 0.0
14/07:00am 11.6 7.2 4.6 62 3.2 W 17 22 9 12 1021.2 1021.2 0.0
14/06:30am 10.4 6.3 4.5 67 2.6 W 15 20 8 11 1020.8 1020.8 0.0
14/06:00am 10.6 6.1 4.1 64 2.9 WNW 17 26 9 14 1020.4 1020.4 0.0
14/05:30am 10.5 6.8 6.1 74 2.0 WNW 15 22 8 12 1020.1 1020.1 0.0
14/05:00am 10.4 7.1 8.0 85 1.2 WNW 15 20 8 11 1019.7 1019.7 0.0
14/04:30am 10.6 7.8 8.7 88 0.9 W 13 17 7 9 1019.6 1019.6 0.0
14/04:00am 10.8 7.8 9.1 89 0.8 W 15 19 8 10 1019.1 1019.1 0.0
14/03:30am 10.5 7.5 9.3 92 0.6 WNW 15 20 8 11 1018.9 1018.9 0.0
14/03:00am 10.6 8.0 9.2 91 0.7 WNW 13 19 7 10 1018.9 1018.9 0.0
14/02:30am 10.8 7.5 9.6 92 0.6 WNW 17 20 9 11 1019.2 1019.2 0.0
14/02:00am 10.9 8.0 9.7 92 0.6 WNW 15 20 8 11 1019.5 1019.5 0.0
14/01:30am 10.2 8.5 9.9 98 0.2 NW 9 17 5 9 1019.7 1019.7 0.0
14/01:00am 8.9 6.8 8.1 95 0.4 NW 9 9 5 5 1020.2 1020.2 0.0
14/12:30am 10.2 8.0 9.3 94 0.4 NW 11 15 6 8 1020.2 1020.2 0.0
14/12:00am 10.7 8.5 9.5 92 0.6 NW 11 15 6 8 1020.6 1020.6 0.0
 
Date/Time
EST
Temp
°C
App
Temp
°C
Dew
Point
°C
Rel
Hum
%
Delta-T
°C
Wind Press
QNH
hPa
Press
MSL
hPa
Rain since
9am
mm
Dir  Spd
km/h
Gust
km/h
Spd
kts
Gust
kts
13/11:30pm 10.1 9.6 9.3 95 0.4 ESE 2 9 1 5 1020.2 1020.2 0.0
13/11:00pm 10.9 10.9 9.7 92 0.6 CALM 0 0 0 0 1020.3 1020.3 0.0
13/10:30pm 11.2 11.3 10.0 92 0.6 CALM 0 0 0 0 1020.8 1020.8 0.0
13/10:00pm 11.6 10.4 9.5 87 1.1 ESE 6 9 3 5 1021.0 1021.0 0.0
13/09:30pm 12.0 10.4 10.2 89 0.9 ESE 9 11 5 6 1021.2 1021.2 0.0
13/09:00pm 12.5 11.2 10.0 85 1.3 ESE 7 9 4 5 1021.1 1021.1 0.0
13/08:30pm 13.1 11.7 9.7 80 1.7 ESE 7 11 4 6 1021.2 1021.2 0.0
13/08:00pm 14.1 12.5 10.3 78 2.0 ESE 9 15 5 8 1021.3 1021.3 0.0
13/07:30pm 14.5 12.5 10.1 75 2.3 ESE 11 17 6 9 1021.2 1021.2 0.0
13/07:00pm 15.0 12.6 10.2 73 2.5 ESE 13 17 7 9 1020.9 1020.9 0.0
13/06:30pm 15.6 13.3 10.4 71 2.7 E 13 19 7 10 1020.6 1020.6 0.0
13/06:00pm 16.3 13.3 10.6 69 3.0 E 17 20 9 11 1020.3 1020.3 0.0
13/05:30pm 17.4 14.5 11.0 66 3.5 E 17 20 9 11 1020.1 1020.1 0.0
13/05:00pm 18.5 15.3 11.3 63 3.9 E 19 22 10 12 1020.2 1020.2 0.0
13/04:30pm 20.1 17.4 11.6 58 4.7 E 17 20 9 11 1019.8 1019.8 0.0
13/04:00pm 20.9 18.5 11.3 54 5.3 ENE 15 19 8 10 1019.9 1019.9 0.0
13/03:30pm 21.5 18.8 11.8 54 5.4 E 17 22 9 12 1020.0 1020.0 0.0
13/03:00pm 21.5 19.5 11.5 53 5.6 E 13 19 7 10 1020.2 1020.2 0.0
13/02:30pm 21.7 19.9 12.0 54 5.5 ESE 13 20 7 11 1020.4 1020.4 0.0
13/02:00pm 21.1 18.3 11.4 54 5.4 ESE 17 22 9 12 1020.6 1020.6 0.0
13/01:30pm 21.9 20.4 11.9 53 5.6 ENE 11 17 6 9 1021.0 1021.0 0.0
13/01:00pm 21.2 18.1 11.5 54 5.4 ENE 19 30 10 16 1021.2 1021.2 0.0
13/12:30pm 21.2 19.1 11.0 52 5.6 E 13 22 7 12 1021.8 1021.8 0.0
13/12:00pm 20.2 17.4 11.4 57 4.9 SSE 17 28 9 15 1022.4 1022.4 0.0
13/11:30am 21.2 19.0 10.7 51 5.8 ESE 13 20 7 11 1022.9 1022.9 0.0
13/11:00am 20.8 18.3 10.9 53 5.4 SE 15 20 8 11 1023.6 1023.6 0.0

Other formats

Comma delimited format used in spreadsheet applications
http://www.bom.gov.au/fwo/IDN60801/IDN60801.94650.axf

JavaScript Object Notation format (JSON) in row-major order
http://www.bom.gov.au/fwo/IDN60801/IDN60801.94650.json

Data quality

Most of these data are generated automatically and are frequently updated. Quality checks on data are not normally performed. It is possible for incorrect values to appear. Refer to information at About Latest Weather Observations and please check the disclaimer before using these data.